Time;durP1;ratioP1;P1;durP2;ratioP2;P2;SDS_P1;SDS_P2;PMS_P1;PMS_P2;Temp;Humidity;BMP_temperature;BMP_pressure;BME280_temperature;BME280_humidity;BME280_pressure;Samples;Min_cycle;Max_cycle;Signal;HPM_P1;HPM_P2
2022/09/03 03:00:20;;;;;;;3.55;1.40;;;22.80;38.40;;;;;;5928440;23;46024;-66
2022/09/03 03:02:46;;;;;;;2.53;1.25;;;22.70;38.30;;;;;;4849997;29;47440;-66
2022/09/03 03:05:13;;;;;;;2.50;1.15;;;22.70;38.30;;;;;;4878560;29;45493;-65
2022/09/03 03:07:39;;;;;;;2.25;0.98;;;22.70;38.30;;;;;;4853958;29;45234;-65
2022/09/03 03:10:05;;;;;;;2.10;0.90;;;22.70;38.40;;;;;;4873736;29;45208;-65
2022/09/03 03:12:31;;;;;;;3.00;1.30;;;22.70;38.40;;;;;;4885469;29;47939;-66
2022/09/03 03:14:56;;;;;;;2.38;0.85;;;22.70;38.40;;;;;;4866248;29;44672;-65
2022/09/03 03:17:22;;;;;;;1.55;0.98;;;22.70;38.40;;;;;;4881743;29;45485;-66
2022/09/03 03:19:48;;;;;;;1.38;0.82;;;22.70;38.50;;;;;;4887337;29;45518;-65
2022/09/03 03:22:13;;;;;;;1.88;1.00;;;22.60;38.50;;;;;;4882799;29;45250;-65
2022/09/03 03:24:39;;;;;;;1.77;0.90;;;22.60;38.60;;;;;;4869169;29;45525;-65
2022/09/03 03:27:06;;;;;;;1.35;0.80;;;22.60;38.60;;;;;;4891325;28;45198;-66
2022/09/03 03:29:32;;;;;;;1.42;0.98;;;22.60;38.60;;;;;;4886001;29;45205;-65
2022/09/03 03:31:58;;;;;;;1.98;0.93;;;22.60;38.70;;;;;;4890573;28;45465;-66
2022/09/03 03:34:23;;;;;;;1.05;0.68;;;22.60;38.70;;;;;;4886375;28;45390;-65
2022/09/03 03:36:49;;;;;;;1.15;0.80;;;22.60;38.70;;;;;;4884935;28;45459;-64
2022/09/03 03:39:15;;;;;;;2.67;0.73;;;22.60;38.80;;;;;;4887340;29;44710;-66
2022/09/03 03:41:40;;;;;;;1.92;0.68;;;22.60;38.80;;;;;;4874854;28;45184;-65
2022/09/03 03:44:06;;;;;;;3.30;1.00;;;22.60;38.90;;;;;;4887899;29;45212;-66
2022/09/03 03:46:37;;;;;;;2.13;0.80;;;22.60;38.90;;;;;;4883166;29;45185;-66
2022/09/03 03:49:03;;;;;;;2.55;1.13;;;22.60;38.90;;;;;;4870167;29;45406;-65
2022/09/03 03:51:29;;;;;;;1.45;0.80;;;22.60;38.90;;;;;;4881440;28;47669;-65
2022/09/03 03:53:55;;;;;;;2.50;1.05;;;22.60;38.80;;;;;;4885804;29;45418;-66
2022/09/03 03:56:21;;;;;;;3.05;0.95;;;22.60;39.00;;;;;;4882614;29;45527;-65
2022/09/03 03:58:47;;;;;;;2.33;0.90;;;22.60;39.00;;;;;;4876636;29;45140;-65
2022/09/03 04:01:19;;;;;;;2.97;0.75;;;22.50;39.00;;;;;;4877830;29;45996;-65
2022/09/03 04:03:45;;;;;;;2.07;0.67;;;22.50;39.00;;;;;;4864920;29;45291;-65
2022/09/03 04:06:13;;;;;;;1.77;0.70;;;22.50;39.00;;;;;;4887335;29;44714;-66
2022/09/03 04:08:40;;;;;;;1.48;0.70;;;22.50;39.00;;;;;;4867536;29;44732;-65
2022/09/03 04:11:07;;;;;;;0.70;0.65;;;22.50;39.00;;;;;;4864804;29;45249;-65
2022/09/03 04:13:34;;;;;;;1.85;0.80;;;22.50;39.60;;;;;;4866766;29;45471;-65
2022/09/03 04:16:10;;;;;;;0.70;0.50;;;22.50;39.10;;;;;;4867028;29;45565;-64
2022/09/03 04:18:36;;;;;;;1.30;0.68;;;22.50;39.10;;;;;;4851445;29;44930;-65
2022/09/03 04:21:21;;;;;;;2.45;0.90;;;22.50;39.10;;;;;;4854187;29;45685;-65
2022/09/03 04:23:47;;;;;;;2.47;0.57;;;22.50;39.20;;;;;;4874410;29;46688;-65
2022/09/03 04:26:17;;;;;;;1.67;0.75;;;22.50;39.70;;;;;;4858887;29;46591;-65
2022/09/03 04:28:44;;;;;;;5.28;1.00;;;22.50;39.10;;;;;;4860819;29;45246;-65
2022/09/03 04:31:11;;;;;;;0.88;0.70;;;22.50;39.20;;;;;;4832023;29;45547;-65
2022/09/03 04:33:37;;;;;;;1.00;0.60;;;22.50;39.20;;;;;;4828643;29;45170;-66
2022/09/03 04:36:04;;;;;;;0.90;0.80;;;22.40;39.20;;;;;;4860127;29;45171;-65
2022/09/03 04:38:31;;;;;;;1.65;0.63;;;22.50;39.30;;;;;;4861622;29;45724;-65
2022/09/03 04:40:58;;;;;;;0.70;0.70;;;22.50;39.30;;;;;;4846953;29;45659;-65
2022/09/03 04:43:24;;;;;;;1.40;0.80;;;22.50;39.30;;;;;;4849898;29;45351;-66
2022/09/03 04:45:50;;;;;;;2.17;0.70;;;22.50;39.30;;;;;;4827261;29;45348;-66
2022/09/03 04:48:15;;;;;;;2.38;0.82;;;22.40;39.30;;;;;;4847980;29;45094;-65
2022/09/03 04:50:42;;;;;;;1.25;0.75;;;22.40;39.40;;;;;;4862985;29;45252;-66
2022/09/03 04:53:08;;;;;;;3.13;0.82;;;22.40;39.40;;;;;;4861603;29;45290;-64
2022/09/03 04:55:36;;;;;;;0.80;0.73;;;22.40;39.40;;;;;;4847240;29;44740;-64
2022/09/03 04:58:11;;;;;;;1.10;0.90;;;22.40;39.40;;;;;;4848469;29;45235;-64
2022/09/03 05:00:37;;;;;;;2.17;1.70;;;22.40;39.40;;;;;;4847446;29;45280;-65
2022/09/03 05:03:04;;;;;;;3.00;1.85;;;22.40;39.40;;;;;;4846495;29;44705;-65
2022/09/03 05:05:32;;;;;;;4.93;2.55;;;22.40;39.40;;;;;;4845669;29;45469;-65
2022/09/03 05:08:00;;;;;;;3.40;2.25;;;22.40;39.40;;;;;;4849882;29;45682;-65
2022/09/03 05:10:27;;;;;;;3.80;2.33;;;22.40;39.50;;;;;;4850079;29;47056;-65
2022/09/03 05:13:05;;;;;;;4.00;2.40;;;22.40;39.60;;;;;;4850360;29;45322;-64
2022/09/03 05:15:35;;;;;;;4.25;2.28;;;22.40;39.80;;;;;;4846303;29;45466;-65
2022/09/03 05:18:01;;;;;;;3.45;2.30;;;22.40;39.70;;;;;;4820279;29;44888;-65
2022/09/03 05:20:31;;;;;;;4.15;2.35;;;22.40;39.70;;;;;;4833108;29;45385;-66
2022/09/03 05:23:03;;;;;;;2.88;2.00;;;22.40;39.70;;;;;;4850452;29;45141;-65
2022/09/03 05:25:32;;;;;;;6.22;2.28;;;22.30;39.80;;;;;;4834249;29;45532;-65
2022/09/03 05:28:01;;;;;;;4.30;2.00;;;22.40;39.80;;;;;;4818810;29;45298;-65
2022/09/03 05:30:27;;;;;;;2.33;1.90;;;22.40;39.80;;;;;;4847778;29;46082;-66
2022/09/03 05:32:54;;;;;;;4.93;2.35;;;22.30;39.80;;;;;;4862984;29;44704;-65
2022/09/03 05:35:20;;;;;;;4.90;2.42;;;22.40;39.80;;;;;;4862830;29;45265;-65
2022/09/03 05:37:46;;;;;;;7.93;3.05;;;22.40;39.80;;;;;;4848330;29;45266;-65
2022/09/03 05:40:12;;;;;;;6.90;3.15;;;22.40;39.90;;;;;;4846858;29;46951;-65
2022/09/03 05:42:38;;;;;;;6.00;3.03;;;22.40;40.00;;;;;;4831350;29;45657;-65
2022/09/03 05:45:09;;;;;;;10.20;3.38;;;22.40;40.00;;;;;;4862425;29;46601;-65
2022/09/03 05:47:38;;;;;;;7.78;3.50;;;22.40;40.10;;;;;;4862562;29;45437;-65
2022/09/03 05:50:09;;;;;;;7.22;3.15;;;22.40;40.10;;;;;;4817014;29;45065;-67
2022/09/03 05:52:36;;;;;;;4.88;2.92;;;22.40;40.70;;;;;;4862324;29;45174;-68
2022/09/03 05:55:02;;;;;;;8.80;2.90;;;22.50;40.20;;;;;;4830056;29;45520;-66
2022/09/03 05:57:29;;;;;;;3.35;2.42;;;22.50;40.20;;;;;;4829727;29;45442;-65
2022/09/03 05:59:55;;;;;;;3.08;2.47;;;22.50;40.10;;;;;;4830715;29;46285;-65
2022/09/03 06:02:22;;;;;;;8.88;2.15;;;22.50;40.10;;;;;;4874060;29;45467;-65
2022/09/03 06:04:48;;;;;;;4.22;2.13;;;22.50;40.10;;;;;;4857624;29;45300;-65
2022/09/03 06:07:15;;;;;;;2.50;1.90;;;22.50;40.00;;;;;;4859143;29;44862;-65
2022/09/03 06:09:41;;;;;;;3.00;1.83;;;22.60;40.10;;;;;;4856027;29;45374;-65
2022/09/03 06:12:07;;;;;;;2.53;1.80;;;22.60;40.20;;;;;;4855297;29;45251;-65
2022/09/03 06:14:35;;;;;;;2.15;1.48;;;22.60;40.20;;;;;;4873852;29;45445;-66
2022/09/03 06:17:01;;;;;;;3.08;1.60;;;22.60;40.20;;;;;;4859682;29;45160;-65
2022/09/03 06:19:27;;;;;;;1.63;1.40;;;22.60;40.30;;;;;;4875398;29;47005;-68
2022/09/03 06:21:55;;;;;;;4.20;1.50;;;22.60;40.40;;;;;;4860053;29;44907;-67
2022/09/03 06:24:32;;;;;;;1.73;1.20;;;22.60;40.50;;;;;;4859065;29;44742;-65
2022/09/03 06:26:58;;;;;;;2.13;1.00;;;22.50;40.70;;;;;;4879034;29;45249;-65
2022/09/03 06:29:24;;;;;;;1.17;1.00;;;22.50;40.70;;;;;;4862823;29;48245;-65
2022/09/03 06:31:50;;;;;;;1.10;0.98;;;22.40;40.70;;;;;;4879083;29;44901;-65
2022/09/03 06:34:21;;;;;;;1.80;1.15;;;22.40;40.80;;;;;;4859827;29;45214;-65
2022/09/03 06:36:47;;;;;;;1.98;0.95;;;22.30;40.90;;;;;;4843585;29;45343;-66
2022/09/03 06:39:13;;;;;;;3.30;0.95;;;22.30;40.90;;;;;;4878164;29;46148;-65
2022/09/03 06:41:39;;;;;;;2.40;1.00;;;22.30;41.00;;;;;;4861350;29;46106;-65
2022/09/03 06:44:10;;;;;;;2.10;0.98;;;22.30;41.10;;;;;;4846699;29;44726;-66
2022/09/03 06:46:37;;;;;;;2.60;1.10;;;22.30;41.10;;;;;;4843697;29;45753;-65
2022/09/03 06:49:03;;;;;;;1.63;0.90;;;22.20;41.10;;;;;;4829594;29;46119;-65
2022/09/03 06:51:32;;;;;;;2.55;0.98;;;22.20;41.20;;;;;;4875479;29;45594;-65
2022/09/03 06:54:03;;;;;;;1.67;1.02;;;22.20;41.20;;;;;;4888316;28;45827;-65
2022/09/03 06:56:29;;;;;;;2.20;0.90;;;22.20;41.30;;;;;;4861166;29;45340;-66
2022/09/03 06:58:57;;;;;;;1.58;1.00;;;22.20;41.30;;;;;;4846107;29;44917;-67
2022/09/03 07:01:29;;;;;;;4.75;1.25;;;22.20;41.30;;;;;;4843219;29;45052;-65
2022/09/03 07:03:59;;;;;;;4.05;0.93;;;22.20;41.40;;;;;;4832710;29;45601;-66
2022/09/03 07:06:29;;;;;;;3.42;0.90;;;22.20;41.40;;;;;;4877839;29;45587;-66
2022/09/03 07:08:56;;;;;;;5.72;1.13;;;22.10;41.40;;;;;;4846580;29;45197;-66
2022/09/03 07:11:25;;;;;;;1.00;0.63;;;22.10;42.00;;;;;;4846752;29;45498;-66
2022/09/03 07:13:52;;;;;;;5.03;1.20;;;22.10;41.40;;;;;;4862444;29;44688;-65
2022/09/03 07:16:36;;;;;;;2.17;1.00;;;22.10;41.50;;;;;;4846977;29;45238;-66
2022/09/03 07:19:03;;;;;;;2.00;0.98;;;22.10;41.80;;;;;;4863544;29;46219;-65
2022/09/03 07:21:30;;;;;;;1.88;1.08;;;22.10;41.50;;;;;;4862880;29;45296;-65
2022/09/03 07:23:56;;;;;;;;;;;22.20;41.50;;;;;;4846703;29;46046;-65
2022/09/03 07:26:26;;;;;;;;;;;22.20;42.00;;;;;;4877484;29;45587;-65
2022/09/03 07:28:54;;;;;;;;;;;22.20;42.00;;;;;;4875528;29;46113;-64
2022/09/03 07:31:24;;;;;;;;;;;22.20;42.00;;;;;;4876421;29;45259;-65
2022/09/03 07:34:00;;;;;;;;;;;22.20;42.20;;;;;;4881714;29;45225;-65
2022/09/03 07:36:26;;;;;;;;;;;22.20;42.20;;;;;;4860989;29;45352;-66
2022/09/03 07:38:56;;;;;;;;;;;22.20;42.00;;;;;;4863628;29;45745;-65
2022/09/03 07:41:31;;;;;;;;;;;22.20;42.00;;;;;;4880002;29;45349;-65
2022/09/03 07:43:57;;;;;;;;;;;22.20;42.00;;;;;;4880282;29;44692;-65
2022/09/03 07:46:24;;;;;;;;;;;22.20;42.10;;;;;;4880770;29;45360;-65
2022/09/03 07:48:50;;;;;;;;;;;22.20;42.00;;;;;;4866726;29;45256;-66
2022/09/03 07:51:19;;;;;;;;;;;22.20;42.00;;;;;;4881712;29;45415;-68
2022/09/03 07:53:45;;;;;;;;;;;22.20;42.10;;;;;;4878707;29;44780;-65
2022/09/03 07:56:11;;;;;;;;;;;22.20;42.10;;;;;;4849902;29;45889;-66
2022/09/03 07:58:37;;;;;;;;;;;22.30;42.20;;;;;;4878019;29;45743;-66
2022/09/03 08:01:04;;;;;;;;;;;22.30;42.10;;;;;;4880401;29;44793;-66
2022/09/03 08:03:30;;;;;;;;;;;22.30;42.10;;;;;;4882963;29;45251;-64
2022/09/03 08:05:59;;;;;;;;;;;22.30;42.10;;;;;;4881447;29;45287;-65
2022/09/03 08:08:25;;;;;;;;;;;22.30;42.10;;;;;;4878920;29;45680;-65
2022/09/03 08:10:50;;;;;;;;;;;22.40;42.00;;;;;;4877211;29;45055;-65
2022/09/03 08:13:16;;;;;;;;;;;22.40;41.90;;;;;;4866270;29;45570;-65
2022/09/03 08:15:42;;;;;;;;;;;22.50;41.90;;;;;;4874437;29;45624;-65
2022/09/03 08:18:09;;;;;;;;;;;22.50;41.70;;;;;;4880069;29;48058;-65
2022/09/03 08:20:36;;;;;;;;;;;22.50;41.70;;;;;;4892766;28;45383;-67
2022/09/03 08:23:02;;;;;;;;;;;22.50;41.70;;;;;;4878924;29;44928;-65
2022/09/03 08:25:28;;;;;;;;;;;22.50;41.80;;;;;;4879677;29;45943;-65
2022/09/03 08:27:59;;;;;;;;;;;22.50;41.90;;;;;;4877039;29;45072;-65
2022/09/03 08:30:26;;;;;;;;;;;22.50;41.90;;;;;;4879713;29;45240;-65
2022/09/03 08:32:52;;;;;;;;;;;22.60;41.90;;;;;;4893700;28;45374;-65
2022/09/03 08:35:18;;;;;;;;;;;22.60;42.00;;;;;;4861274;29;45479;-67
2022/09/03 08:37:43;;;;;;;;;;;22.60;41.90;;;;;;4847647;29;46989;-65
2022/09/03 08:40:09;;;;;;;;;;;22.60;41.90;;;;;;4863930;29;45641;-67
2022/09/03 08:42:48;;;;;;;;;;;22.60;41.90;;;;;;4881114;29;45302;-66
2022/09/03 08:45:15;;;;;;;;;;;22.60;42.10;;;;;;4863387;29;45660;-66
2022/09/03 08:47:48;;;;;;;;;;;22.60;42.10;;;;;;4866195;29;45331;-65
2022/09/03 08:50:34;;;;;;;;;;;22.60;42.10;;;;;;4876326;29;45754;-66
2022/09/03 08:53:06;;;;;;;;;;;22.60;42.10;;;;;;4876419;29;44720;-65
2022/09/03 08:55:41;;;;;;;;;;;22.70;42.10;;;;;;4881220;29;44772;-66
2022/09/03 08:58:09;;;;;;;;;;;22.70;42.10;;;;;;4880137;29;46967;-64
2022/09/03 09:00:41;;;;;;;;;;;22.70;42.00;;;;;;4894625;28;45373;-66
2022/09/03 09:03:15;;;;;;;;;;;22.80;42.00;;;;;;4880100;29;45333;-66
2022/09/03 09:06:06;;;;;;;;;;;22.80;41.90;;;;;;4879297;29;49231;-65
2022/09/03 09:08:31;;;;;;;;;;;22.80;41.90;;;;;;4871520;29;45601;-66
2022/09/03 09:11:07;;;;;;;;;;;22.90;41.90;;;;;;4864271;29;44778;-65
2022/09/03 09:13:38;;;;;;;;;;;23.00;41.90;;;;;;4850771;29;45551;-65
2022/09/03 09:16:10;;;;;;;;;;;23.00;41.80;;;;;;4881620;29;45266;-65
2022/09/03 09:18:42;;;;;;;;;;;23.00;41.70;;;;;;4880106;29;45064;-65
2022/09/03 09:21:26;;;;;;;;;;;23.00;41.70;;;;;;4880765;29;45132;-65
2022/09/03 09:23:53;;;;;;;;;;;23.00;41.60;;;;;;4859024;29;45299;-65
2022/09/03 09:26:20;;;;;;;;;;;23.10;41.60;;;;;;4864704;29;44787;-64
2022/09/03 09:28:46;;;;;;;;;;;23.10;41.60;;;;;;4879506;29;45421;-65
2022/09/03 09:31:17;;;;;;;1.40;0.70;;;23.10;41.50;;;;;;4862051;29;45439;-65
2022/09/03 09:33:43;;;;;;;1.00;0.80;;;23.20;41.00;;;;;;4846859;29;44702;-65
2022/09/03 09:36:12;;;;;;;1.58;0.90;;;23.30;41.00;;;;;;4861734;29;45500;-67
2022/09/03 09:38:38;;;;;;;3.65;0.90;;;23.30;40.90;;;;;;4860418;29;45751;-67
2022/09/03 09:41:18;;;;;;;3.53;0.80;;;23.40;41.00;;;;;;4857556;29;44746;-65
2022/09/03 09:43:46;;;;;;;4.57;0.88;;;23.40;41.10;;;;;;4861680;29;45245;-65
2022/09/03 09:46:22;;;;;;;2.97;1.02;;;23.40;40.90;;;;;;4876048;29;45418;-66
2022/09/03 09:48:55;;;;;;;3.10;0.85;;;23.50;40.90;;;;;;4861069;29;45213;-66
2022/09/03 09:51:25;;;;;;;1.40;0.73;;;23.50;40.80;;;;;;4877143;29;45545;-66
2022/09/03 09:54:20;;;;;;;4.68;0.90;;;23.60;40.80;;;;;;4862351;29;45396;-66
2022/09/03 09:56:46;;;;;;;2.40;0.88;;;23.60;40.70;;;;;;4873387;29;45286;-65
2022/09/03 09:59:13;;;;;;;1.13;0.77;;;23.70;40.60;;;;;;4844227;29;45507;-66
2022/09/03 10:01:43;;;;;;;1.80;0.70;;;23.70;40.50;;;;;;4858036;29;45263;-65
2022/09/03 10:04:23;;;;;;;1.52;0.70;;;23.80;40.50;;;;;;4859600;29;44815;-65
2022/09/03 10:06:57;;;;;;;2.40;0.70;;;23.80;40.40;;;;;;4876144;29;45610;-64
2022/09/03 10:09:27;;;;;;;4.38;0.73;;;23.80;40.40;;;;;;4859498;29;45630;-64
2022/09/03 10:12:13;;;;;;;2.22;0.95;;;23.80;40.20;;;;;;4877535;29;45508;-66
2022/09/03 10:14:54;;;;;;;3.25;0.82;;;23.90;40.30;;;;;;4858628;29;45526;-66
2022/09/03 10:17:27;;;;;;;1.85;1.00;;;23.90;41.00;;;;;;4848151;29;45589;-65
2022/09/03 10:20:26;;;;;;;1.10;0.70;;;23.90;40.20;;;;;;4831264;29;45572;-66
2022/09/03 10:23:09;;;;;;;5.90;0.98;;;24.00;40.20;;;;;;4878678;29;45531;-69
2022/09/03 10:26:10;;;;;;;0.82;0.70;;;24.10;40.40;;;;;;4846144;29;45520;-65
2022/09/03 10:28:40;;;;;;;1.98;0.75;;;24.10;40.20;;;;;;4860853;29;45220;-66
2022/09/03 10:31:28;;;;;;;0.98;0.80;;;24.10;40.20;;;;;;4861045;29;46414;-66
2022/09/03 10:33:57;;;;;;;2.03;0.75;;;24.20;40.40;;;;;;4879641;29;44886;-65
2022/09/03 10:36:29;;;;;;;1.55;0.95;;;24.20;40.30;;;;;;4883174;29;45253;-65
2022/09/03 10:39:19;;;;;;;1.83;0.73;;;24.30;40.40;;;;;;4866372;29;45366;-65
2022/09/03 10:42:12;;;;;;;3.78;0.80;;;24.30;40.30;;;;;;4862410;29;45167;-66
2022/09/03 10:45:09;;;;;;;1.45;0.57;;;24.40;40.40;;;;;;4863382;29;45230;-66
2022/09/03 10:47:43;;;;;;;1.15;0.68;;;24.40;40.40;;;;;;4879037;29;45360;-66
2022/09/03 10:50:16;;;;;;;0.68;0.55;;;24.40;40.40;;;;;;4863263;29;45818;-67
2022/09/03 10:53:12;;;;;;;1.83;0.80;;;24.40;40.40;;;;;;4860175;29;45803;-65
2022/09/03 10:56:00;;;;;;;1.88;0.70;;;24.40;40.40;;;;;;4856061;29;46522;-65
2022/09/03 10:59:03;;;;;;;3.80;0.80;;;24.40;40.40;;;;;;4862908;29;45362;-66
2022/09/03 11:01:57;;;;;;;1.70;0.77;;;24.50;40.40;;;;;;4879373;29;45884;-65
2022/09/03 11:04:28;;;;;;;;;;;24.50;40.40;;;;;;4879248;29;45398;-65
2022/09/03 11:07:04;;;;;;;1.38;0.65;;;24.50;40.80;;;;;;4879680;29;45196;-65
2022/09/03 11:09:32;;;;;;;1.85;1.00;;;24.50;40.40;;;;;;4870543;29;45389;-66
2022/09/03 11:12:07;;;;;;;1.10;0.80;;;24.60;40.50;;;;;;4887498;29;45433;-66
2022/09/03 11:14:39;;;;;;;0.90;0.80;;;24.70;40.50;;;;;;4866825;29;45483;-65
2022/09/03 11:17:26;;;;;;;2.90;1.00;;;24.60;40.50;;;;;;4850392;29;44617;-66
2022/09/03 11:20:12;;;;;;;0.80;0.70;;;24.70;41.00;;;;;;4866593;29;45215;-65
2022/09/03 11:22:38;;;;;;;3.00;0.90;;;24.70;40.90;;;;;;4865893;29;45253;-65
2022/09/03 11:25:04;;;;;;;2.75;0.93;;;24.70;40.70;;;;;;4869332;29;46073;-65
2022/09/03 11:27:41;;;;;;;3.63;0.88;;;24.70;40.80;;;;;;4869121;29;45549;-66
2022/09/03 11:30:14;;;;;;;1.00;0.90;;;24.70;40.90;;;;;;4884479;29;45259;-65
2022/09/03 11:32:40;;;;;;;1.58;0.93;;;24.70;41.10;;;;;;4869151;29;45726;-65
2022/09/03 11:35:16;;;;;;;1.25;0.90;;;24.70;41.10;;;;;;4883311;29;46005;-65
2022/09/03 11:38:01;;;;;;;1.42;1.10;;;24.80;41.40;;;;;;4874771;29;45210;-65
2022/09/03 11:40:35;;;;;;;1.63;1.00;;;24.80;42.10;;;;;;4852591;29;45152;-67
2022/09/03 11:43:23;;;;;;;5.00;1.02;;;24.80;42.00;;;;;;4866898;29;45493;-66
2022/09/03 11:46:11;;;;;;;1.40;1.25;;;24.80;41.70;;;;;;4867750;29;46848;-65
2022/09/03 11:48:37;;;;;;;1.40;1.02;;;24.80;41.40;;;;;;4880504;29;45222;-65
2022/09/03 11:51:03;;;;;;;1.38;0.80;;;24.90;41.50;;;;;;4886146;29;45442;-65
2022/09/03 11:53:35;;;;;;;0.90;0.90;;;24.90;41.50;;;;;;4864694;29;45359;-66
2022/09/03 11:56:03;;;;;;;1.13;0.95;;;24.90;41.70;;;;;;4863353;29;48867;-66
2022/09/03 11:58:36;;;;;;;1.42;1.13;;;24.90;41.60;;;;;;4883443;29;45046;-66
2022/09/03 12:01:03;;;;;;;1.45;1.00;;;25.00;41.80;;;;;;4863986;29;45324;-64
2022/09/03 12:03:58;;;;;;;1.30;1.00;;;25.00;41.80;;;;;;4881657;29;45294;-65
2022/09/03 12:06:27;;;;;;;2.55;1.20;;;25.00;42.10;;;;;;4882744;29;46915;-65
2022/09/03 12:08:56;;;;;;;2.78;1.15;;;25.10;41.90;;;;;;4881701;29;45437;-65
2022/09/03 12:11:43;;;;;;;2.08;0.90;;;25.10;41.80;;;;;;4879086;29;46761;-65
2022/09/03 12:14:19;;;;;;;3.22;1.20;;;25.10;42.10;;;;;;4881321;29;46167;-68
2022/09/03 12:17:22;;;;;;;2.83;1.17;;;25.20;42.30;;;;;;4865527;29;46138;-65
2022/09/03 12:19:50;;;;;;;;;;;25.20;42.60;;;;;;4849364;29;45331;-65
2022/09/03 12:22:16;;;;;;;1.42;0.90;;;25.20;42.70;;;;;;4881245;29;44917;-64
2022/09/03 12:24:43;;;;;;;1.75;1.17;;;25.20;42.10;;;;;;4862998;29;45460;-64
2022/09/03 12:27:21;;;;;;;1.70;1.25;;;25.20;42.10;;;;;;4882331;29;45111;-64
2022/09/03 12:30:00;;;;;;;3.20;1.10;;;25.30;42.30;;;;;;4881342;29;45182;-64
2022/09/03 12:32:31;;;;;;;1.35;1.25;;;25.30;42.50;;;;;;4866668;29;45529;-65
2022/09/03 12:34:57;;;;;;;1.80;1.10;;;25.30;42.40;;;;;;4881760;29;45310;-65
2022/09/03 12:37:24;;;;;;;1.92;1.40;;;25.30;42.20;;;;;;4883331;29;45372;-66
2022/09/03 12:39:51;;;;;;;1.67;1.20;;;25.30;42.30;;;;;;4881215;29;45389;-65
2022/09/03 12:42:24;;;;;;;1.40;1.10;;;25.30;42.30;;;;;;4879603;29;45311;-65
2022/09/03 12:44:49;;;;;;;3.63;1.20;;;25.40;42.50;;;;;;4877844;29;45469;-65
2022/09/03 12:47:20;;;;;;;2.17;1.75;;;25.40;42.50;;;;;;4880425;29;46782;-65
2022/09/03 12:49:47;;;;;;;5.70;1.33;;;25.40;42.50;;;;;;4883466;29;45295;-65
2022/09/03 12:52:45;;;;;;;2.13;1.23;;;25.40;42.50;;;;;;4881264;29;45639;-65
2022/09/03 12:55:25;;;;;;;3.65;1.15;;;25.40;42.70;;;;;;4877141;29;45186;-65
2022/09/03 12:58:21;;;;;;;1.88;1.40;;;25.40;43.00;;;;;;4845975;29;46167;-64
2022/09/03 13:00:57;;;;;;;1.35;0.90;;;25.40;42.90;;;;;;4879816;29;45414;-65
2022/09/03 13:03:29;;;;;;;1.48;1.10;;;25.40;43.00;;;;;;4868152;29;45296;-66
2022/09/03 13:06:06;;;;;;;1.40;1.13;;;25.40;42.70;;;;;;4882719;29;45517;-65
2022/09/03 13:08:39;;;;;;;1.70;1.10;;;25.50;43.00;;;;;;4883814;29;45222;-66
2022/09/03 13:11:05;;;;;;;1.75;1.00;;;25.40;42.70;;;;;;4865734;29;45315;-65
2022/09/03 13:13:33;;;;;;;2.22;1.40;;;25.40;42.60;;;;;;4850755;29;45425;-65
2022/09/03 13:16:08;;;;;;;1.20;1.10;;;25.40;42.70;;;;;;4875864;29;45522;-65
2022/09/03 13:18:54;;;;;;;1.48;1.10;;;25.40;43.00;;;;;;4882453;29;45348;-64
2022/09/03 13:21:25;;;;;;;2.05;1.00;;;25.40;42.70;;;;;;4881129;29;44902;-66
2022/09/03 13:23:51;;;;;;;1.67;1.25;;;25.40;42.60;;;;;;4883496;29;45052;-65
2022/09/03 13:26:23;;;;;;;2.13;1.15;;;25.50;42.80;;;;;;4884289;29;45221;-65
2022/09/03 13:29:05;;;;;;;1.33;1.23;;;25.40;42.70;;;;;;4881277;29;45138;-65
2022/09/03 13:31:45;;;;;;;1.50;1.20;;;25.40;42.90;;;;;;4880732;29;45458;-65
2022/09/03 13:34:23;;;;;;;1.58;1.10;;;25.40;42.70;;;;;;4852460;29;45259;-66
2022/09/03 13:37:03;;;;;;;3.13;1.33;;;25.50;42.90;;;;;;4880034;29;45373;-65
2022/09/03 13:39:39;;;;;;;2.05;1.00;;;25.40;42.80;;;;;;4882990;29;46173;-67
2022/09/03 13:42:08;;;;;;;3.63;1.40;;;25.40;43.00;;;;;;4864219;29;45283;-66
2022/09/03 13:44:47;;;;;;;1.27;1.02;;;25.50;42.90;;;;;;4879020;29;45236;-66
2022/09/03 13:50:20;;;;;;;1.50;1.25;;;25.40;43.10;;;;;;4860586;29;45046;-65
2022/09/03 13:50:26;;;;;;;6.30;1.10;;;25.40;43.30;;;;;;4880859;29;46378;-65
2022/09/03 13:53:06;;;;;;;3.28;1.35;;;25.40;43.00;;;;;;4868315;29;44895;-66
2022/09/03 13:55:53;;;;;;;1.20;1.10;;;25.40;43.00;;;;;;4875451;29;45375;-66
2022/09/03 13:58:33;;;;;;;5.70;1.15;;;25.50;43.50;;;;;;4891347;28;45761;-65
2022/09/03 14:01:01;;;;;;;3.10;1.17;;;25.40;43.20;;;;;;4846069;29;45814;-65
2022/09/03 14:03:49;;;;;;;2.50;1.30;;;25.40;43.10;;;;;;4890997;29;45354;-66
2022/09/03 14:06:29;;;;;;;2.28;1.40;;;25.40;43.30;;;;;;4862044;29;45077;-66
2022/09/03 14:09:20;;;;;;;1.92;1.02;;;25.40;43.40;;;;;;4875191;29;45329;-66
2022/09/03 14:12:11;;;;;;;1.65;1.00;;;25.50;43.60;;;;;;4878393;28;45989;-67
2022/09/03 14:14:45;;;;;;;3.08;1.13;;;25.40;43.60;;;;;;4863534;29;45279;-66
2022/09/03 14:17:13;;;;;;;2.15;1.45;;;25.40;43.50;;;;;;4860877;29;45337;-66
2022/09/03 14:20:11;;;;;;;2.25;1.08;;;25.40;43.50;;;;;;4880162;29;45271;-66
2022/09/03 14:22:43;;;;;;;1.95;1.48;;;25.50;43.80;;;;;;4848291;29;46769;-65
2022/09/03 14:25:29;;;;;;;1.95;1.55;;;25.40;43.50;;;;;;4880655;29;45439;-66
2022/09/03 14:28:13;;;;;;;2.13;1.50;;;25.50;43.90;;;;;;4873513;29;45098;-65
2022/09/03 14:30:58;;;;;;;1.63;1.17;;;25.50;44.10;;;;;;4847178;29;45431;-66
2022/09/03 14:33:56;;;;;;;3.67;1.45;;;25.50;43.80;;;;;;4861140;29;45141;-65
2022/09/03 14:36:39;;;;;;;3.17;1.20;;;25.50;44.10;;;;;;4828034;29;45267;-64
2022/09/03 14:39:14;;;;;;;;;;;25.50;43.90;;;;;;4862944;29;45587;-64
2022/09/03 14:41:58;;;;;;;2.03;1.20;;;25.40;44.20;;;;;;4862320;29;46717;-65
2022/09/03 14:44:29;;;;;;;1.90;1.27;;;25.50;44.10;;;;;;4875874;29;45267;-68
2022/09/03 14:47:01;;;;;;;2.92;1.40;;;25.50;43.80;;;;;;4858762;29;45467;-67
2022/09/03 14:49:34;;;;;;;3.35;1.30;;;25.50;44.00;;;;;;4875554;29;45871;-65
2022/09/03 14:52:22;;;;;;;3.00;1.58;;;25.50;44.00;;;;;;4876228;29;45132;-66
2022/09/03 14:55:10;;;;;;;3.60;1.30;;;25.50;44.30;;;;;;4892180;28;45421;-66
2022/09/03 14:57:52;;;;;;;2.00;1.30;;;25.50;44.00;;;;;;4875818;29;44690;-66
2022/09/03 15:00:32;;;;;;;1.55;1.42;;;25.50;44.10;;;;;;4876517;29;45426;-64
2022/09/03 15:03:13;;;;;;;2.42;1.42;;;25.50;44.60;;;;;;4860157;29;46276;-65
2022/09/03 15:06:10;;;;;;;2.40;1.30;;;25.50;44.60;;;;;;4862809;29;45643;-65
2022/09/03 15:09:14;;;;;;;6.20;1.40;;;25.50;44.80;;;;;;4832178;29;45479;-65
2022/09/03 15:11:56;;;;;;;1.63;1.15;;;25.40;45.00;;;;;;4844884;29;45687;-65
2022/09/03 15:14:56;;;;;;;2.95;1.45;;;25.40;45.30;;;;;;4858958;29;45226;-66
2022/09/03 15:17:44;;;;;;;1.45;1.33;;;25.40;45.70;;;;;;4861732;29;45794;-65
2022/09/03 15:20:16;;;;;;;3.15;1.67;;;25.40;45.40;;;;;;4860793;29;45265;-65
2022/09/03 15:23:07;;;;;;;1.67;1.58;;;25.40;45.50;;;;;;4875393;29;45216;-66
2022/09/03 15:25:52;;;;;;;2.97;1.25;;;25.40;45.60;;;;;;4877161;29;46094;-66
2022/09/03 15:28:38;;;;;;;1.85;1.20;;;25.30;45.40;;;;;;4863232;29;46227;-67
2022/09/03 15:31:16;;;;;;;1.63;1.20;;;25.30;46.00;;;;;;4857375;29;44907;-66
2022/09/03 15:34:05;;;;;;;6.30;1.23;;;25.30;45.80;;;;;;4877656;29;45293;-65
2022/09/03 15:36:47;;;;;;;2.95;1.27;;;25.30;45.90;;;;;;4846957;29;45108;-66
2022/09/03 15:39:26;;;;;;;2.50;1.30;;;25.20;46.10;;;;;;4845697;29;46278;-66
2022/09/03 15:41:55;;;;;;;4.63;1.17;;;25.20;46.00;;;;;;4843239;29;45193;-65
2022/09/03 15:44:22;;;;;;;1.25;1.15;;;25.20;45.80;;;;;;4875320;29;45430;-67
2022/09/03 15:47:04;;;;;;;1.83;1.30;;;25.20;45.90;;;;;;4859459;29;45594;-65
2022/09/03 15:49:39;;;;;;;2.75;1.27;;;25.20;46.50;;;;;;4846616;29;45293;-65
2022/09/03 15:52:26;;;;;;;1.40;1.20;;;25.20;46.30;;;;;;4877369;29;45259;-67
2022/09/03 15:54:57;;;;;;;1.70;1.30;;;25.20;46.50;;;;;;4863395;29;45544;-66
2022/09/03 15:57:29;;;;;;;1.45;1.30;;;25.20;46.20;;;;;;4894533;23;45667;-65
2022/09/03 16:00:03;;;;;;;1.75;1.23;;;25.20;46.50;;;;;;4881998;28;45826;-66
2022/09/03 16:03:09;;;;;;;4.47;1.33;;;25.20;46.90;;;;;;4867673;29;45269;-66
2022/09/03 16:05:46;;;;;;;1.30;1.10;;;25.20;47.50;;;;;;4885655;28;45281;-66
2022/09/03 16:08:22;;;;;;;3.45;1.38;;;25.20;47.20;;;;;;4872748;29;45188;-66
2022/09/03 16:11:00;;;;;;;1.42;1.33;;;25.20;46.90;;;;;;4882172;29;46836;-66
2022/09/03 16:14:01;;;;;;;2.72;1.10;;;25.20;47.30;;;;;;4866653;29;44782;-65
2022/09/03 16:17:04;;;;;;;1.13;1.00;;;25.10;47.40;;;;;;4885440;28;45301;-67
2022/09/03 16:19:40;;;;;;;;;;;25.10;47.40;;;;;;4903645;28;45460;-66
2022/09/03 16:22:13;;;;;;;1.98;1.40;;;25.10;47.50;;;;;;4865294;29;45049;-66
2022/09/03 16:24:58;;;;;;;2.17;1.13;;;25.10;46.80;;;;;;4882944;29;45772;-65
2022/09/03 16:27:32;;;;;;;1.85;1.30;;;25.10;46.80;;;;;;4897981;28;45512;-65
2022/09/03 16:30:27;;;;;;;1.88;1.40;;;25.10;46.80;;;;;;4851132;29;45101;-66
2022/09/03 16:33:12;;;;;;;2.50;1.52;;;25.20;47.20;;;;;;4891630;29;45900;-68